sensor_id;sensor_type;location;lat;lon;timestamp;P1;durP1;ratioP1;P2;durP2;ratioP2
72301;SDS011;60235;52.234;5.186;2023-05-10T00:01:39;53.70;;;19.60;;
72301;SDS011;60235;52.234;5.186;2023-05-10T00:04:05;50.58;;;19.33;;
72301;SDS011;60235;52.234;5.186;2023-05-10T00:06:31;58.20;;;20.75;;
72301;SDS011;60235;52.234;5.186;2023-05-10T00:08:57;55.33;;;21.88;;
72301;SDS011;60235;52.234;5.186;2023-05-10T00:11:23;54.83;;;20.35;;
72301;SDS011;60235;52.234;5.186;2023-05-10T00:13:49;52.45;;;19.27;;
72301;SDS011;60235;52.234;5.186;2023-05-10T00:16:15;58.45;;;21.75;;
72301;SDS011;60235;52.234;5.186;2023-05-10T00:18:41;57.30;;;20.30;;
72301;SDS011;60235;52.234;5.186;2023-05-10T00:21:07;58.83;;;20.90;;
72301;SDS011;60235;52.234;5.186;2023-05-10T00:23:33;58.88;;;20.77;;
72301;SDS011;60235;52.234;5.186;2023-05-10T00:25:59;57.90;;;20.33;;
72301;SDS011;60235;52.234;5.186;2023-05-10T00:28:26;55.70;;;20.73;;
72301;SDS011;60235;52.234;5.186;2023-05-10T00:30:53;53.67;;;20.27;;
72301;SDS011;60235;52.234;5.186;2023-05-10T00:33:19;54.25;;;19.83;;
72301;SDS011;60235;52.234;5.186;2023-05-10T00:35:45;60.95;;;20.25;;
72301;SDS011;60235;52.234;5.186;2023-05-10T00:38:11;59.45;;;21.00;;
72301;SDS011;60235;52.234;5.186;2023-05-10T00:40:37;62.50;;;21.33;;
72301;SDS011;60235;52.234;5.186;2023-05-10T00:43:03;63.58;;;20.90;;
72301;SDS011;60235;52.234;5.186;2023-05-10T00:45:30;65.57;;;21.55;;
72301;SDS011;60235;52.234;5.186;2023-05-10T00:47:57;62.05;;;20.67;;
72301;SDS011;60235;52.234;5.186;2023-05-10T00:50:24;59.60;;;20.52;;
72301;SDS011;60235;52.234;5.186;2023-05-10T00:52:51;70.07;;;23.48;;
72301;SDS011;60235;52.234;5.186;2023-05-10T00:55:17;62.88;;;21.80;;
72301;SDS011;60235;52.234;5.186;2023-05-10T00:57:43;69.95;;;22.67;;
72301;SDS011;60235;52.234;5.186;2023-05-10T01:00:10;64.07;;;22.40;;
72301;SDS011;60235;52.234;5.186;2023-05-10T01:02:37;73.03;;;23.98;;
72301;SDS011;60235;52.234;5.186;2023-05-10T01:05:04;72.70;;;23.55;;
72301;SDS011;60235;52.234;5.186;2023-05-10T01:07:30;71.60;;;23.65;;
72301;SDS011;60235;52.234;5.186;2023-05-10T01:09:56;71.18;;;24.20;;
72301;SDS011;60235;52.234;5.186;2023-05-10T01:12:22;69.00;;;24.27;;
72301;SDS011;60235;52.234;5.186;2023-05-10T01:14:48;73.50;;;25.00;;
72301;SDS011;60235;52.234;5.186;2023-05-10T01:17:14;65.47;;;24.73;;
72301;SDS011;60235;52.234;5.186;2023-05-10T01:19:41;70.53;;;25.80;;
72301;SDS011;60235;52.234;5.186;2023-05-10T01:27:19;65.28;;;24.20;;
72301;SDS011;60235;52.234;5.186;2023-05-10T01:32:35;59.22;;;24.88;;
72301;SDS011;60235;52.234;5.186;2023-05-10T01:37:57;60.05;;;25.17;;
72301;SDS011;60235;52.234;5.186;2023-05-10T01:40:19;61.90;;;24.90;;
72301;SDS011;60235;52.234;5.186;2023-05-10T01:42:53;58.58;;;26.45;;
72301;SDS011;60235;52.234;5.186;2023-05-10T01:48:01;60.03;;;26.50;;
72301;SDS011;60235;52.234;5.186;2023-05-10T01:50:30;60.72;;;25.23;;
72301;SDS011;60235;52.234;5.186;2023-05-10T01:52:57;65.05;;;26.88;;
72301;SDS011;60235;52.234;5.186;2023-05-10T01:55:27;65.50;;;26.63;;
72301;SDS011;60235;52.234;5.186;2023-05-10T01:58:07;66.47;;;26.40;;
72301;SDS011;60235;52.234;5.186;2023-05-10T02:00:34;68.22;;;26.55;;
72301;SDS011;60235;52.234;5.186;2023-05-10T02:03:01;60.13;;;24.42;;
72301;SDS011;60235;52.234;5.186;2023-05-10T02:05:29;69.57;;;27.33;;
72301;SDS011;60235;52.234;5.186;2023-05-10T02:07:57;69.22;;;27.23;;
72301;SDS011;60235;52.234;5.186;2023-05-10T02:10:23;61.38;;;24.95;;
72301;SDS011;60235;52.234;5.186;2023-05-10T02:12:49;68.82;;;26.65;;
72301;SDS011;60235;52.234;5.186;2023-05-10T02:15:23;70.20;;;27.00;;
72301;SDS011;60235;52.234;5.186;2023-05-10T02:17:50;76.97;;;27.00;;
72301;SDS011;60235;52.234;5.186;2023-05-10T02:20:17;70.45;;;26.15;;
72301;SDS011;60235;52.234;5.186;2023-05-10T02:22:44;72.10;;;24.50;;
72301;SDS011;60235;52.234;5.186;2023-05-10T02:25:13;77.43;;;26.25;;
72301;SDS011;60235;52.234;5.186;2023-05-10T02:27:39;67.72;;;25.00;;
72301;SDS011;60235;52.234;5.186;2023-05-10T02:30:07;67.43;;;25.48;;
72301;SDS011;60235;52.234;5.186;2023-05-10T02:32:33;78.60;;;26.58;;
72301;SDS011;60235;52.234;5.186;2023-05-10T02:35:00;71.30;;;25.27;;
72301;SDS011;60235;52.234;5.186;2023-05-10T02:37:26;68.07;;;25.60;;
72301;SDS011;60235;52.234;5.186;2023-05-10T02:39:53;69.00;;;25.85;;
72301;SDS011;60235;52.234;5.186;2023-05-10T02:42:23;71.93;;;26.98;;
72301;SDS011;60235;52.234;5.186;2023-05-10T02:44:50;64.90;;;24.58;;
72301;SDS011;60235;52.234;5.186;2023-05-10T02:47:17;72.47;;;26.02;;
72301;SDS011;60235;52.234;5.186;2023-05-10T02:49:44;63.25;;;25.35;;
72301;SDS011;60235;52.234;5.186;2023-05-10T02:52:10;75.43;;;29.02;;
72301;SDS011;60235;52.234;5.186;2023-05-10T02:54:41;74.63;;;26.02;;
72301;SDS011;60235;52.234;5.186;2023-05-10T02:57:09;70.03;;;25.98;;
72301;SDS011;60235;52.234;5.186;2023-05-10T02:59:36;74.45;;;27.90;;
72301;SDS011;60235;52.234;5.186;2023-05-10T03:02:02;73.50;;;24.73;;
72301;SDS011;60235;52.234;5.186;2023-05-10T03:04:28;71.40;;;27.73;;
72301;SDS011;60235;52.234;5.186;2023-05-10T03:06:54;70.85;;;25.33;;
72301;SDS011;60235;52.234;5.186;2023-05-10T03:09:20;70.88;;;25.80;;
72301;SDS011;60235;52.234;5.186;2023-05-10T03:19:30;84.38;;;28.58;;
72301;SDS011;60235;52.234;5.186;2023-05-10T03:21:59;90.03;;;28.95;;
72301;SDS011;60235;52.234;5.186;2023-05-10T03:24:25;91.47;;;28.73;;
72301;SDS011;60235;52.234;5.186;2023-05-10T03:26:53;100.50;;;28.42;;
72301;SDS011;60235;52.234;5.186;2023-05-10T03:29:21;82.82;;;26.30;;
72301;SDS011;60235;52.234;5.186;2023-05-10T03:31:48;81.97;;;26.88;;
72301;SDS011;60235;52.234;5.186;2023-05-10T03:34:14;79.32;;;25.88;;
72301;SDS011;60235;52.234;5.186;2023-05-10T03:36:40;93.47;;;25.88;;
72301;SDS011;60235;52.234;5.186;2023-05-10T03:39:06;81.70;;;26.00;;
72301;SDS011;60235;52.234;5.186;2023-05-10T03:41:32;84.28;;;25.30;;
72301;SDS011;60235;52.234;5.186;2023-05-10T03:43:58;84.88;;;26.10;;
72301;SDS011;60235;52.234;5.186;2023-05-10T03:46:24;78.50;;;23.17;;
72301;SDS011;60235;52.234;5.186;2023-05-10T03:48:50;78.80;;;23.60;;
72301;SDS011;60235;52.234;5.186;2023-05-10T03:51:16;81.32;;;23.52;;
72301;SDS011;60235;52.234;5.186;2023-05-10T03:53:42;84.80;;;25.48;;
72301;SDS011;60235;52.234;5.186;2023-05-10T03:56:08;82.15;;;22.77;;
72301;SDS011;60235;52.234;5.186;2023-05-10T03:58:34;84.05;;;22.98;;
72301;SDS011;60235;52.234;5.186;2023-05-10T04:01:00;76.32;;;22.77;;
72301;SDS011;60235;52.234;5.186;2023-05-10T04:03:26;67.00;;;21.60;;
72301;SDS011;60235;52.234;5.186;2023-05-10T04:05:59;74.85;;;21.83;;
72301;SDS011;60235;52.234;5.186;2023-05-10T04:08:25;72.20;;;22.90;;
72301;SDS011;60235;52.234;5.186;2023-05-10T04:10:51;75.15;;;23.65;;
72301;SDS011;60235;52.234;5.186;2023-05-10T04:13:17;85.40;;;25.00;;
72301;SDS011;60235;52.234;5.186;2023-05-10T04:15:43;81.65;;;23.17;;
72301;SDS011;60235;52.234;5.186;2023-05-10T04:18:10;87.88;;;24.10;;
72301;SDS011;60235;52.234;5.186;2023-05-10T04:20:36;85.05;;;23.80;;
72301;SDS011;60235;52.234;5.186;2023-05-10T04:23:02;98.40;;;24.55;;
72301;SDS011;60235;52.234;5.186;2023-05-10T04:25:28;87.13;;;23.17;;
72301;SDS011;60235;52.234;5.186;2023-05-10T04:27:54;81.63;;;24.20;;
72301;SDS011;60235;52.234;5.186;2023-05-10T04:30:20;76.13;;;22.90;;
72301;SDS011;60235;52.234;5.186;2023-05-10T04:32:46;71.72;;;20.67;;
72301;SDS011;60235;52.234;5.186;2023-05-10T04:35:12;85.38;;;23.25;;
72301;SDS011;60235;52.234;5.186;2023-05-10T04:37:39;83.05;;;22.40;;
72301;SDS011;60235;52.234;5.186;2023-05-10T04:40:05;89.13;;;23.13;;
72301;SDS011;60235;52.234;5.186;2023-05-10T04:42:32;73.20;;;20.42;;
72301;SDS011;60235;52.234;5.186;2023-05-10T04:44:58;82.30;;;22.98;;
72301;SDS011;60235;52.234;5.186;2023-05-10T04:47:24;77.35;;;21.42;;
72301;SDS011;60235;52.234;5.186;2023-05-10T04:49:50;81.60;;;23.10;;
72301;SDS011;60235;52.234;5.186;2023-05-10T04:52:16;74.95;;;22.83;;
72301;SDS011;60235;52.234;5.186;2023-05-10T04:54:42;74.15;;;21.90;;
72301;SDS011;60235;52.234;5.186;2023-05-10T04:57:09;72.95;;;22.83;;
72301;SDS011;60235;52.234;5.186;2023-05-10T04:59:35;69.13;;;22.83;;
72301;SDS011;60235;52.234;5.186;2023-05-10T05:02:02;76.13;;;22.73;;
72301;SDS011;60235;52.234;5.186;2023-05-10T05:04:29;57.13;;;20.75;;
72301;SDS011;60235;52.234;5.186;2023-05-10T05:06:56;58.13;;;20.02;;
72301;SDS011;60235;52.234;5.186;2023-05-10T05:09:22;65.03;;;21.80;;
72301;SDS011;60235;52.234;5.186;2023-05-10T05:11:48;63.55;;;21.70;;
72301;SDS011;60235;52.234;5.186;2023-05-10T05:14:14;57.67;;;20.92;;
72301;SDS011;60235;52.234;5.186;2023-05-10T05:16:40;54.05;;;19.00;;
72301;SDS011;60235;52.234;5.186;2023-05-10T05:19:06;56.72;;;18.45;;
72301;SDS011;60235;52.234;5.186;2023-05-10T05:21:32;46.83;;;16.45;;
72301;SDS011;60235;52.234;5.186;2023-05-10T05:23:58;50.78;;;16.25;;
72301;SDS011;60235;52.234;5.186;2023-05-10T05:26:24;46.00;;;14.23;;
72301;SDS011;60235;52.234;5.186;2023-05-10T05:28:50;40.83;;;14.98;;
72301;SDS011;60235;52.234;5.186;2023-05-10T05:31:18;42.00;;;15.10;;
72301;SDS011;60235;52.234;5.186;2023-05-10T05:33:44;38.65;;;13.93;;
72301;SDS011;60235;52.234;5.186;2023-05-10T05:36:11;37.90;;;12.88;;
72301;SDS011;60235;52.234;5.186;2023-05-10T05:38:37;34.92;;;13.95;;
72301;SDS011;60235;52.234;5.186;2023-05-10T05:41:03;33.92;;;13.25;;
72301;SDS011;60235;52.234;5.186;2023-05-10T05:43:29;36.03;;;14.07;;
72301;SDS011;60235;52.234;5.186;2023-05-10T05:45:55;38.95;;;13.85;;
72301;SDS011;60235;52.234;5.186;2023-05-10T05:48:22;36.30;;;13.43;;
72301;SDS011;60235;52.234;5.186;2023-05-10T05:50:48;37.55;;;14.95;;
72301;SDS011;60235;52.234;5.186;2023-05-10T05:53:15;38.58;;;13.73;;
72301;SDS011;60235;52.234;5.186;2023-05-10T05:55:50;31.73;;;13.05;;
72301;SDS011;60235;52.234;5.186;2023-05-10T05:58:16;32.10;;;12.23;;
72301;SDS011;60235;52.234;5.186;2023-05-10T06:00:42;29.38;;;11.27;;
72301;SDS011;60235;52.234;5.186;2023-05-10T06:03:08;28.83;;;10.90;;
72301;SDS011;60235;52.234;5.186;2023-05-10T06:05:35;32.10;;;12.02;;
72301;SDS011;60235;52.234;5.186;2023-05-10T06:08:01;27.13;;;10.80;;
72301;SDS011;60235;52.234;5.186;2023-05-10T06:10:27;30.83;;;11.80;;
72301;SDS011;60235;52.234;5.186;2023-05-10T06:12:53;25.73;;;10.05;;
72301;SDS011;60235;52.234;5.186;2023-05-10T06:15:19;28.55;;;11.30;;
72301;SDS011;60235;52.234;5.186;2023-05-10T06:17:45;33.80;;;11.77;;
72301;SDS011;60235;52.234;5.186;2023-05-10T06:20:14;38.05;;;13.48;;
72301;SDS011;60235;52.234;5.186;2023-05-10T06:22:40;38.90;;;13.20;;
72301;SDS011;60235;52.234;5.186;2023-05-10T06:25:06;43.35;;;14.40;;
72301;SDS011;60235;52.234;5.186;2023-05-10T06:27:32;42.63;;;13.07;;
72301;SDS011;60235;52.234;5.186;2023-05-10T06:29:58;43.03;;;14.18;;
72301;SDS011;60235;52.234;5.186;2023-05-10T06:32:25;35.28;;;13.52;;
72301;SDS011;60235;52.234;5.186;2023-05-10T06:34:51;39.63;;;13.07;;
72301;SDS011;60235;52.234;5.186;2023-05-10T06:37:17;33.15;;;12.18;;
72301;SDS011;60235;52.234;5.186;2023-05-10T06:39:43;40.42;;;13.85;;
72301;SDS011;60235;52.234;5.186;2023-05-10T06:42:09;32.08;;;12.73;;
72301;SDS011;60235;52.234;5.186;2023-05-10T06:44:35;41.00;;;13.73;;
72301;SDS011;60235;52.234;5.186;2023-05-10T06:47:01;37.80;;;12.90;;
72301;SDS011;60235;52.234;5.186;2023-05-10T06:49:27;37.67;;;13.38;;
72301;SDS011;60235;52.234;5.186;2023-05-10T06:51:53;36.80;;;12.90;;
72301;SDS011;60235;52.234;5.186;2023-05-10T06:54:20;37.92;;;12.52;;
72301;SDS011;60235;52.234;5.186;2023-05-10T06:56:46;30.40;;;11.30;;
72301;SDS011;60235;52.234;5.186;2023-05-10T06:59:12;36.47;;;13.55;;
72301;SDS011;60235;52.234;5.186;2023-05-10T07:01:39;32.40;;;12.43;;
72301;SDS011;60235;52.234;5.186;2023-05-10T07:04:05;32.78;;;11.60;;
72301;SDS011;60235;52.234;5.186;2023-05-10T07:06:32;29.92;;;11.18;;
72301;SDS011;60235;52.234;5.186;2023-05-10T07:08:58;29.25;;;10.90;;
72301;SDS011;60235;52.234;5.186;2023-05-10T07:11:25;31.67;;;11.48;;
72301;SDS011;60235;52.234;5.186;2023-05-10T07:13:51;29.25;;;11.07;;
72301;SDS011;60235;52.234;5.186;2023-05-10T07:16:17;25.02;;;10.57;;
72301;SDS011;60235;52.234;5.186;2023-05-10T07:18:43;28.48;;;11.00;;
72301;SDS011;60235;52.234;5.186;2023-05-10T07:21:09;33.42;;;11.35;;
72301;SDS011;60235;52.234;5.186;2023-05-10T07:23:35;27.02;;;10.60;;
72301;SDS011;60235;52.234;5.186;2023-05-10T07:26:01;25.73;;;9.75;;
72301;SDS011;60235;52.234;5.186;2023-05-10T07:28:28;29.15;;;11.35;;
72301;SDS011;60235;52.234;5.186;2023-05-10T07:30:54;30.50;;;10.90;;
72301;SDS011;60235;52.234;5.186;2023-05-10T07:33:20;24.67;;;10.30;;
72301;SDS011;60235;52.234;5.186;2023-05-10T07:35:46;25.45;;;9.90;;
72301;SDS011;60235;52.234;5.186;2023-05-10T07:38:12;24.33;;;10.00;;
72301;SDS011;60235;52.234;5.186;2023-05-10T07:40:38;28.80;;;11.15;;
72301;SDS011;60235;52.234;5.186;2023-05-10T07:43:04;26.60;;;11.30;;
72301;SDS011;60235;52.234;5.186;2023-05-10T07:45:32;27.67;;;10.38;;
72301;SDS011;60235;52.234;5.186;2023-05-10T07:47:58;27.88;;;10.80;;
72301;SDS011;60235;52.234;5.186;2023-05-10T07:50:25;28.25;;;11.95;;
72301;SDS011;60235;52.234;5.186;2023-05-10T07:52:51;25.15;;;10.85;;
72301;SDS011;60235;52.234;5.186;2023-05-10T07:55:18;26.27;;;11.65;;
72301;SDS011;60235;52.234;5.186;2023-05-10T07:57:46;25.52;;;11.40;;
72301;SDS011;60235;52.234;5.186;2023-05-10T08:00:12;24.40;;;10.00;;
72301;SDS011;60235;52.234;5.186;2023-05-10T08:02:39;30.75;;;12.30;;
72301;SDS011;60235;52.234;5.186;2023-05-10T08:05:05;27.77;;;12.38;;
72301;SDS011;60235;52.234;5.186;2023-05-10T08:07:31;29.92;;;11.00;;
72301;SDS011;60235;52.234;5.186;2023-05-10T08:09:57;27.25;;;11.10;;
72301;SDS011;60235;52.234;5.186;2023-05-10T08:12:23;23.42;;;10.93;;
72301;SDS011;60235;52.234;5.186;2023-05-10T08:14:49;25.83;;;10.30;;
72301;SDS011;60235;52.234;5.186;2023-05-10T08:17:15;22.27;;;10.68;;
72301;SDS011;60235;52.234;5.186;2023-05-10T08:19:41;24.50;;;10.13;;
72301;SDS011;60235;52.234;5.186;2023-05-10T08:22:07;20.73;;;9.73;;
72301;SDS011;60235;52.234;5.186;2023-05-10T08:24:33;22.48;;;9.18;;
72301;SDS011;60235;52.234;5.186;2023-05-10T08:27:03;23.25;;;9.30;;
72301;SDS011;60235;52.234;5.186;2023-05-10T08:29:29;20.98;;;9.00;;
72301;SDS011;60235;52.234;5.186;2023-05-10T08:31:55;20.10;;;8.48;;
72301;SDS011;60235;52.234;5.186;2023-05-10T08:34:21;19.75;;;8.63;;
72301;SDS011;60235;52.234;5.186;2023-05-10T08:36:47;15.98;;;7.47;;
72301;SDS011;60235;52.234;5.186;2023-05-10T08:39:13;13.55;;;6.10;;
72301;SDS011;60235;52.234;5.186;2023-05-10T08:41:39;15.95;;;7.18;;
72301;SDS011;60235;52.234;5.186;2023-05-10T08:44:05;18.63;;;7.43;;
72301;SDS011;60235;52.234;5.186;2023-05-10T08:46:33;19.85;;;8.80;;
72301;SDS011;60235;52.234;5.186;2023-05-10T08:49:01;17.38;;;7.53;;
72301;SDS011;60235;52.234;5.186;2023-05-10T08:51:29;16.10;;;7.05;;
72301;SDS011;60235;52.234;5.186;2023-05-10T08:53:59;14.98;;;6.60;;
72301;SDS011;60235;52.234;5.186;2023-05-10T08:56:25;16.63;;;7.63;;
72301;SDS011;60235;52.234;5.186;2023-05-10T08:58:51;19.10;;;7.85;;
72301;SDS011;60235;52.234;5.186;2023-05-10T09:01:18;16.05;;;7.35;;
72301;SDS011;60235;52.234;5.186;2023-05-10T09:03:44;15.75;;;7.47;;
72301;SDS011;60235;52.234;5.186;2023-05-10T09:06:12;18.50;;;7.78;;
72301;SDS011;60235;52.234;5.186;2023-05-10T09:08:38;16.92;;;7.20;;
72301;SDS011;60235;52.234;5.186;2023-05-10T09:11:05;16.27;;;7.47;;
72301;SDS011;60235;52.234;5.186;2023-05-10T09:13:31;16.90;;;7.22;;
72301;SDS011;60235;52.234;5.186;2023-05-10T09:15:57;16.17;;;6.90;;
72301;SDS011;60235;52.234;5.186;2023-05-10T09:18:23;21.13;;;7.45;;
72301;SDS011;60235;52.234;5.186;2023-05-10T09:20:49;15.52;;;7.00;;
72301;SDS011;60235;52.234;5.186;2023-05-10T09:23:15;16.95;;;7.40;;
72301;SDS011;60235;52.234;5.186;2023-05-10T09:25:41;15.07;;;6.95;;
72301;SDS011;60235;52.234;5.186;2023-05-10T09:28:07;15.88;;;8.27;;
72301;SDS011;60235;52.234;5.186;2023-05-10T09:30:34;18.85;;;7.75;;
72301;SDS011;60235;52.234;5.186;2023-05-10T09:33:01;15.68;;;7.63;;
72301;SDS011;60235;52.234;5.186;2023-05-10T09:35:28;17.10;;;7.32;;
72301;SDS011;60235;52.234;5.186;2023-05-10T09:37:55;16.35;;;6.88;;
72301;SDS011;60235;52.234;5.186;2023-05-10T09:40:25;15.32;;;6.18;;
72301;SDS011;60235;52.234;5.186;2023-05-10T09:45:18;13.65;;;5.70;;
72301;SDS011;60235;52.234;5.186;2023-05-10T09:47:44;13.63;;;6.15;;
72301;SDS011;60235;52.234;5.186;2023-05-10T09:50:11;12.95;;;5.50;;
72301;SDS011;60235;52.234;5.186;2023-05-10T09:55:12;12.00;;;5.82;;
72301;SDS011;60235;52.234;5.186;2023-05-10T09:57:38;12.77;;;5.63;;
72301;SDS011;60235;52.234;5.186;2023-05-10T10:00:05;10.82;;;4.82;;
72301;SDS011;60235;52.234;5.186;2023-05-10T10:02:31;11.90;;;5.47;;
72301;SDS011;60235;52.234;5.186;2023-05-10T10:04:57;10.82;;;4.72;;
72301;SDS011;60235;52.234;5.186;2023-05-10T10:07:24;12.52;;;4.50;;
72301;SDS011;60235;52.234;5.186;2023-05-10T10:09:50;13.82;;;5.20;;
72301;SDS011;60235;52.234;5.186;2023-05-10T10:12:16;11.70;;;4.55;;
72301;SDS011;60235;52.234;5.186;2023-05-10T10:14:44;10.48;;;4.85;;
72301;SDS011;60235;52.234;5.186;2023-05-10T10:17:10;11.85;;;4.80;;
72301;SDS011;60235;52.234;5.186;2023-05-10T10:19:36;9.88;;;4.35;;
72301;SDS011;60235;52.234;5.186;2023-05-10T10:22:02;10.45;;;5.00;;
72301;SDS011;60235;52.234;5.186;2023-05-10T10:24:28;11.10;;;4.78;;
72301;SDS011;60235;52.234;5.186;2023-05-10T10:26:55;10.93;;;4.22;;
72301;SDS011;60235;52.234;5.186;2023-05-10T10:29:31;10.55;;;3.80;;
72301;SDS011;60235;52.234;5.186;2023-05-10T10:34:26;7.93;;;3.50;;
72301;SDS011;60235;52.234;5.186;2023-05-10T10:36:53;10.30;;;4.10;;
72301;SDS011;60235;52.234;5.186;2023-05-10T10:39:19;9.60;;;3.45;;
72301;SDS011;60235;52.234;5.186;2023-05-10T10:41:52;10.65;;;3.05;;
72301;SDS011;60235;52.234;5.186;2023-05-10T10:52:25;8.65;;;3.22;;
72301;SDS011;60235;52.234;5.186;2023-05-10T10:57:21;7.38;;;3.00;;
72301;SDS011;60235;52.234;5.186;2023-05-10T10:59:48;7.57;;;3.35;;
72301;SDS011;60235;52.234;5.186;2023-05-10T11:04:59;8.07;;;2.80;;
72301;SDS011;60235;52.234;5.186;2023-05-10T11:07:25;9.10;;;3.95;;
72301;SDS011;60235;52.234;5.186;2023-05-10T11:09:52;7.50;;;2.63;;
72301;SDS011;60235;52.234;5.186;2023-05-10T11:12:17;9.05;;;3.80;;
72301;SDS011;60235;52.234;5.186;2023-05-10T11:14:49;10.43;;;3.63;;
72301;SDS011;60235;52.234;5.186;2023-05-10T11:17:22;8.30;;;3.50;;
72301;SDS011;60235;52.234;5.186;2023-05-10T11:20:07;9.32;;;3.20;;
72301;SDS011;60235;52.234;5.186;2023-05-10T11:22:49;9.68;;;3.40;;
72301;SDS011;60235;52.234;5.186;2023-05-10T11:25:16;8.88;;;3.10;;
72301;SDS011;60235;52.234;5.186;2023-05-10T11:27:42;12.60;;;4.25;;
72301;SDS011;60235;52.234;5.186;2023-05-10T11:30:09;11.05;;;4.20;;
72301;SDS011;60235;52.234;5.186;2023-05-10T11:32:39;8.63;;;3.58;;
72301;SDS011;60235;52.234;5.186;2023-05-10T11:35:06;9.23;;;3.50;;
72301;SDS011;60235;52.234;5.186;2023-05-10T11:37:32;9.43;;;3.20;;
72301;SDS011;60235;52.234;5.186;2023-05-10T11:39:59;7.88;;;3.35;;
72301;SDS011;60235;52.234;5.186;2023-05-10T11:42:27;9.35;;;2.88;;
72301;SDS011;60235;52.234;5.186;2023-05-10T11:44:53;13.10;;;3.83;;
72301;SDS011;60235;52.234;5.186;2023-05-10T11:47:19;8.65;;;2.67;;
72301;SDS011;60235;52.234;5.186;2023-05-10T11:49:45;10.60;;;2.80;;
72301;SDS011;60235;52.234;5.186;2023-05-10T11:52:12;7.28;;;3.00;;
72301;SDS011;60235;52.234;5.186;2023-05-10T11:54:44;7.55;;;2.67;;
72301;SDS011;60235;52.234;5.186;2023-05-10T11:57:11;8.98;;;2.70;;
72301;SDS011;60235;52.234;5.186;2023-05-10T11:59:37;8.95;;;3.10;;
72301;SDS011;60235;52.234;5.186;2023-05-10T12:02:03;7.53;;;2.50;;
72301;SDS011;60235;52.234;5.186;2023-05-10T12:04:29;9.65;;;2.75;;
72301;SDS011;60235;52.234;5.186;2023-05-10T12:06:55;8.95;;;2.92;;
72301;SDS011;60235;52.234;5.186;2023-05-10T12:09:21;9.50;;;3.35;;
72301;SDS011;60235;52.234;5.186;2023-05-10T12:11:47;7.72;;;2.80;;
72301;SDS011;60235;52.234;5.186;2023-05-10T12:14:13;10.52;;;3.10;;
72301;SDS011;60235;52.234;5.186;2023-05-10T12:16:40;11.73;;;4.20;;
72301;SDS011;60235;52.234;5.186;2023-05-10T12:19:08;9.82;;;3.65;;
72301;SDS011;60235;52.234;5.186;2023-05-10T12:21:34;9.40;;;3.03;;
72301;SDS011;60235;52.234;5.186;2023-05-10T12:24:04;10.35;;;3.65;;
72301;SDS011;60235;52.234;5.186;2023-05-10T12:26:30;11.32;;;3.65;;
72301;SDS011;60235;52.234;5.186;2023-05-10T12:29:15;10.90;;;3.08;;
72301;SDS011;60235;52.234;5.186;2023-05-10T12:31:54;9.10;;;2.80;;
72301;SDS011;60235;52.234;5.186;2023-05-10T12:34:24;7.65;;;3.00;;
72301;SDS011;60235;52.234;5.186;2023-05-10T12:36:53;8.65;;;3.05;;
72301;SDS011;60235;52.234;5.186;2023-05-10T12:39:20;12.40;;;3.58;;
72301;SDS011;60235;52.234;5.186;2023-05-10T12:41:46;13.38;;;4.13;;
72301;SDS011;60235;52.234;5.186;2023-05-10T12:44:12;8.88;;;3.08;;
72301;SDS011;60235;52.234;5.186;2023-05-10T12:46:38;11.60;;;3.40;;
72301;SDS011;60235;52.234;5.186;2023-05-10T12:49:04;9.10;;;3.50;;
72301;SDS011;60235;52.234;5.186;2023-05-10T12:51:30;7.95;;;3.13;;
72301;SDS011;60235;52.234;5.186;2023-05-10T12:53:56;8.90;;;3.25;;
72301;SDS011;60235;52.234;5.186;2023-05-10T12:56:22;9.60;;;3.65;;
72301;SDS011;60235;52.234;5.186;2023-05-10T12:58:48;8.82;;;3.45;;
72301;SDS011;60235;52.234;5.186;2023-05-10T13:01:14;9.25;;;3.40;;
72301;SDS011;60235;52.234;5.186;2023-05-10T13:03:40;8.65;;;3.22;;
72301;SDS011;60235;52.234;5.186;2023-05-10T13:06:08;11.73;;;4.07;;
72301;SDS011;60235;52.234;5.186;2023-05-10T13:08:34;13.30;;;4.95;;
72301;SDS011;60235;52.234;5.186;2023-05-10T13:11:00;14.30;;;6.25;;
72301;SDS011;60235;52.234;5.186;2023-05-10T13:13:26;16.08;;;6.90;;
72301;SDS011;60235;52.234;5.186;2023-05-10T13:15:52;15.50;;;6.45;;
72301;SDS011;60235;52.234;5.186;2023-05-10T13:18:18;16.50;;;6.80;;
72301;SDS011;60235;52.234;5.186;2023-05-10T13:20:45;18.38;;;8.13;;
72301;SDS011;60235;52.234;5.186;2023-05-10T13:23:11;17.50;;;7.78;;
72301;SDS011;60235;52.234;5.186;2023-05-10T13:25:37;19.75;;;7.38;;
72301;SDS011;60235;52.234;5.186;2023-05-10T13:28:04;19.27;;;8.68;;
72301;SDS011;60235;52.234;5.186;2023-05-10T13:30:30;18.50;;;8.52;;
72301;SDS011;60235;52.234;5.186;2023-05-10T13:32:56;21.13;;;8.45;;
72301;SDS011;60235;52.234;5.186;2023-05-10T13:35:22;20.02;;;8.85;;
72301;SDS011;60235;52.234;5.186;2023-05-10T13:37:48;21.75;;;8.88;;
72301;SDS011;60235;52.234;5.186;2023-05-10T13:40:14;17.77;;;7.55;;
72301;SDS011;60235;52.234;5.186;2023-05-10T13:42:40;20.80;;;8.82;;
72301;SDS011;60235;52.234;5.186;2023-05-10T13:45:06;18.73;;;7.20;;
72301;SDS011;60235;52.234;5.186;2023-05-10T13:47:33;20.45;;;7.88;;
72301;SDS011;60235;52.234;5.186;2023-05-10T13:49:58;22.20;;;7.40;;
72301;SDS011;60235;52.234;5.186;2023-05-10T13:52:25;18.75;;;7.30;;
72301;SDS011;60235;52.234;5.186;2023-05-10T13:54:51;19.63;;;7.20;;
72301;SDS011;60235;52.234;5.186;2023-05-10T13:57:19;19.63;;;7.18;;
72301;SDS011;60235;52.234;5.186;2023-05-10T13:59:45;17.45;;;7.25;;
72301;SDS011;60235;52.234;5.186;2023-05-10T14:02:12;16.63;;;6.50;;
72301;SDS011;60235;52.234;5.186;2023-05-10T14:04:38;14.57;;;5.85;;
72301;SDS011;60235;52.234;5.186;2023-05-10T14:07:04;14.60;;;5.13;;
72301;SDS011;60235;52.234;5.186;2023-05-10T14:09:30;11.60;;;5.28;;
72301;SDS011;60235;52.234;5.186;2023-05-10T14:11:56;14.45;;;5.43;;
72301;SDS011;60235;52.234;5.186;2023-05-10T14:14:22;13.48;;;4.85;;
72301;SDS011;60235;52.234;5.186;2023-05-10T14:16:48;12.82;;;5.00;;
72301;SDS011;60235;52.234;5.186;2023-05-10T14:19:14;12.13;;;4.93;;
72301;SDS011;60235;52.234;5.186;2023-05-10T14:21:40;14.90;;;5.65;;
72301;SDS011;60235;52.234;5.186;2023-05-10T14:24:06;17.15;;;5.50;;
72301;SDS011;60235;52.234;5.186;2023-05-10T14:26:32;13.50;;;5.78;;
72301;SDS011;60235;52.234;5.186;2023-05-10T14:28:59;13.15;;;5.68;;
72301;SDS011;60235;52.234;5.186;2023-05-10T14:31:25;17.85;;;6.55;;
72301;SDS011;60235;52.234;5.186;2023-05-10T14:33:52;15.07;;;6.20;;
72301;SDS011;60235;52.234;5.186;2023-05-10T14:36:18;13.27;;;5.30;;
72301;SDS011;60235;52.234;5.186;2023-05-10T14:38:44;15.27;;;5.68;;
72301;SDS011;60235;52.234;5.186;2023-05-10T14:41:10;13.10;;;5.35;;
72301;SDS011;60235;52.234;5.186;2023-05-10T14:43:39;12.98;;;5.07;;
72301;SDS011;60235;52.234;5.186;2023-05-10T14:46:06;15.30;;;5.82;;
72301;SDS011;60235;52.234;5.186;2023-05-10T14:48:32;12.55;;;4.93;;
72301;SDS011;60235;52.234;5.186;2023-05-10T14:50:58;15.38;;;5.80;;
72301;SDS011;60235;52.234;5.186;2023-05-10T14:53:24;13.82;;;5.82;;
72301;SDS011;60235;52.234;5.186;2023-05-10T14:55:50;12.70;;;5.28;;
72301;SDS011;60235;52.234;5.186;2023-05-10T14:58:16;15.70;;;5.30;;
72301;SDS011;60235;52.234;5.186;2023-05-10T15:00:42;13.57;;;5.43;;
72301;SDS011;60235;52.234;5.186;2023-05-10T15:03:08;13.40;;;5.97;;
72301;SDS011;60235;52.234;5.186;2023-05-10T15:05:34;18.08;;;5.82;;
72301;SDS011;60235;52.234;5.186;2023-05-10T15:08:02;13.30;;;5.65;;